Time;durP1;ratioP1;P1;durP2;ratioP2;P2;SDS_P1;SDS_P2;PMS_P1;PMS_P2;Temp;Humidity;BMP_temperature;BMP_pressure;BME280_temperature;BME280_humidity;BME280_pressure;Samples;Min_cycle;Max_cycle;Signal;HPM_P1;HPM_P2
2023/10/26 00:01:26;;;;;;;9.60;8.80;;;11.50;99.90;;;;;;5054761;28;20196;-63
2023/10/26 00:03:52;;;;;;;9.33;8.40;;;11.50;99.90;;;;;;5052260;28;20338;-62
2023/10/26 00:06:18;;;;;;;10.50;8.63;;;11.50;99.90;;;;;;5060567;28;20697;-63
2023/10/26 00:08:43;;;;;;;9.33;8.53;;;11.50;99.90;;;;;;5056863;28;20198;-58
2023/10/26 00:11:09;;;;;;;8.63;7.77;;;11.40;99.90;;;;;;5054194;28;20706;-63
2023/10/26 00:13:34;;;;;;;9.63;8.43;;;11.40;99.90;;;;;;5052372;28;20213;-64
2023/10/26 00:16:00;;;;;;;10.80;9.07;;;11.40;99.90;;;;;;5061168;28;20203;-57
2023/10/26 00:18:25;;;;;;;10.13;9.07;;;11.40;99.90;;;;;;5051000;28;20227;-58
2023/10/26 00:21:00;;;;;;;9.23;8.33;;;11.30;99.90;;;;;;5053618;28;20230;-57
2023/10/26 00:23:26;;;;;;;12.80;10.63;;;11.30;99.90;;;;;;5055911;28;20211;-57
2023/10/26 00:25:52;;;;;;;12.33;9.27;;;11.30;99.90;;;;;;5057829;28;20213;-58
2023/10/26 00:28:17;;;;;;;10.67;9.10;;;11.40;99.90;;;;;;5055335;28;20930;-64
2023/10/26 00:30:43;;;;;;;10.93;9.83;;;11.30;99.90;;;;;;5056846;28;20192;-64
2023/10/26 00:33:08;;;;;;;10.60;9.60;;;11.30;99.90;;;;;;5059432;28;20269;-64
2023/10/26 00:35:34;;;;;;;11.10;9.17;;;11.30;99.90;;;;;;5053465;28;20705;-62
2023/10/26 00:38:02;;;;;;;11.27;10.17;;;11.30;99.90;;;;;;5053321;28;20278;-69
2023/10/26 00:40:28;;;;;;;10.33;9.33;;;11.40;99.90;;;;;;5058022;28;20202;-63
2023/10/26 00:43:06;;;;;;;10.20;9.27;;;11.50;99.90;;;;;;5051018;28;20179;-64
2023/10/26 00:45:35;;;;;;;10.87;9.87;;;11.50;99.90;;;;;;5056116;28;20260;-66
2023/10/26 00:48:01;;;;;;;11.90;10.70;;;11.40;99.90;;;;;;5058780;28;20215;-62
2023/10/26 00:50:27;;;;;;;11.93;10.27;;;11.30;99.90;;;;;;5054580;28;20219;-63
2023/10/26 00:52:54;;;;;;;11.63;10.37;;;11.30;99.90;;;;;;5059422;28;20248;-61
2023/10/26 00:55:20;;;;;;;10.57;9.30;;;11.30;99.90;;;;;;5055376;28;20217;-57
2023/10/26 00:57:45;;;;;;;11.90;10.67;;;11.20;99.90;;;;;;5057556;28;20221;-58
2023/10/26 01:00:12;;;;;;;11.53;10.17;;;11.20;99.90;;;;;;5059660;28;20215;-57
2023/10/26 01:02:38;;;;;;;11.77;10.67;;;11.20;99.90;;;;;;5060735;28;20198;-57
2023/10/26 01:05:04;;;;;;;11.80;10.57;;;11.20;99.90;;;;;;5059716;28;20537;-57
2023/10/26 01:07:29;;;;;;;11.20;10.00;;;11.20;99.90;;;;;;5063513;28;20977;-60
2023/10/26 01:09:56;;;;;;;12.70;11.37;;;11.30;99.90;;;;;;5053396;28;20339;-60
2023/10/26 01:12:21;;;;;;;13.23;10.40;;;11.40;99.90;;;;;;5057067;28;20566;-57
2023/10/26 01:14:47;;;;;;;12.90;11.70;;;11.30;99.90;;;;;;5065579;28;20197;-56
2023/10/26 01:17:13;;;;;;;11.77;10.40;;;11.30;99.90;;;;;;5055162;28;20228;-57
2023/10/26 01:19:41;;;;;;;12.33;10.47;;;11.40;99.90;;;;;;5063434;28;20655;-62
2023/10/26 01:22:06;;;;;;;12.57;11.40;;;11.40;99.90;;;;;;5063188;28;20210;-62
2023/10/26 01:24:32;;;;;;;11.57;10.47;;;11.30;99.90;;;;;;5059341;28;20213;-60
2023/10/26 01:26:57;;;;;;;12.53;11.33;;;11.30;99.90;;;;;;5058613;28;20197;-57
2023/10/26 01:29:23;;;;;;;11.83;10.70;;;11.40;99.90;;;;;;5040504;28;20334;-64
2023/10/26 01:31:49;;;;;;;10.03;9.20;;;11.40;99.90;;;;;;5062375;28;20943;-62
2023/10/26 01:34:15;;;;;;;11.50;10.43;;;11.40;99.90;;;;;;5054354;28;20978;-61
2023/10/26 01:36:40;;;;;;;12.97;11.10;;;11.40;99.90;;;;;;5059063;28;20274;-57
2023/10/26 01:39:05;;;;;;;12.03;10.73;;;11.40;99.90;;;;;;5056429;28;20207;-57
2023/10/26 01:41:32;;;;;;;11.80;10.13;;;11.40;99.90;;;;;;5059483;28;20282;-56
2023/10/26 01:43:58;;;;;;;10.60;9.60;;;11.40;99.90;;;;;;5056126;28;20249;-55
2023/10/26 01:46:26;;;;;;;11.37;10.37;;;11.50;99.90;;;;;;5046360;28;20209;-56
2023/10/26 01:48:51;;;;;;;12.23;11.03;;;11.40;99.90;;;;;;5049950;28;20200;-54
2023/10/26 01:51:17;;;;;;;13.17;11.77;;;11.50;99.90;;;;;;5046227;28;21013;-54
2023/10/26 01:53:42;;;;;;;12.60;10.77;;;11.50;99.90;;;;;;5051226;28;20198;-55
2023/10/26 01:56:08;;;;;;;12.03;10.83;;;11.50;99.90;;;;;;5051907;28;20744;-56
2023/10/26 01:58:33;;;;;;;19.33;10.63;;;11.50;99.90;;;;;;5053979;28;20236;-57
2023/10/26 02:01:00;;;;;;;11.60;9.90;;;11.50;99.90;;;;;;5053229;28;20247;-58
2023/10/26 02:03:25;;;;;;;14.13;11.50;;;11.50;99.90;;;;;;5056155;28;20190;-57
2023/10/26 02:05:51;;;;;;;11.67;10.57;;;11.20;99.90;;;;;;5057197;28;20203;-65
2023/10/26 02:08:16;;;;;;;12.63;10.93;;;11.30;99.90;;;;;;5057580;28;20195;-66
2023/10/26 02:10:42;;;;;;;12.97;11.70;;;11.40;99.90;;;;;;5051083;28;20281;-65
2023/10/26 02:13:07;;;;;;;11.13;10.13;;;11.50;99.90;;;;;;5050610;28;20203;-66
2023/10/26 02:15:33;;;;;;;12.50;11.00;;;11.40;99.90;;;;;;5055291;28;20283;-67
2023/10/26 02:17:58;;;;;;;11.90;10.80;;;11.50;99.90;;;;;;5053172;28;20936;-54
2023/10/26 02:20:24;;;;;;;12.40;11.13;;;11.60;99.90;;;;;;5051616;28;20617;-55
2023/10/26 02:22:49;;;;;;;12.93;11.20;;;11.60;99.90;;;;;;5049933;28;20245;-55
2023/10/26 02:25:15;;;;;;;13.50;11.13;;;11.40;99.90;;;;;;5052533;28;20252;-55
2023/10/26 02:27:41;;;;;;;11.90;10.80;;;11.40;99.90;;;;;;5049151;28;20347;-56
2023/10/26 02:30:07;;;;;;;11.93;10.73;;;11.40;99.90;;;;;;5048712;28;20215;-55
2023/10/26 02:32:33;;;;;;;13.43;12.17;;;11.50;99.90;;;;;;5055248;28;20200;-54
2023/10/26 02:34:59;;;;;;;13.40;12.03;;;11.70;99.90;;;;;;5056356;28;20938;-54
2023/10/26 02:37:24;;;;;;;13.20;11.83;;;11.70;99.90;;;;;;5054396;28;20230;-55
2023/10/26 02:39:50;;;;;;;11.73;10.57;;;11.50;99.90;;;;;;5054662;28;20283;-55
2023/10/26 02:42:15;;;;;;;13.43;12.03;;;11.30;99.90;;;;;;5057848;28;20512;-55
2023/10/26 02:44:41;;;;;;;13.90;12.43;;;11.50;99.90;;;;;;5055537;28;20313;-55
2023/10/26 02:47:06;;;;;;;12.20;11.10;;;11.70;99.90;;;;;;5051875;28;20197;-55
2023/10/26 02:49:32;;;;;;;12.17;10.97;;;11.70;99.90;;;;;;5063819;28;20268;-55
2023/10/26 02:51:57;;;;;;;15.10;12.37;;;11.60;99.90;;;;;;5059822;28;20576;-55
2023/10/26 02:54:27;;;;;;;11.70;10.53;;;11.70;99.90;;;;;;5059493;28;20202;-54
2023/10/26 02:56:53;;;;;;;11.40;10.30;;;11.70;99.90;;;;;;5052459;28;20311;-54
2023/10/26 02:59:18;;;;;;;11.30;10.23;;;11.60;99.90;;;;;;5057401;28;20567;-55
2023/10/26 03:01:44;;;;;;;13.53;12.23;;;11.70;99.90;;;;;;5059171;28;20211;-54
2023/10/26 03:04:09;;;;;;;12.73;11.50;;;11.70;99.90;;;;;;5057192;28;20745;-54
2023/10/26 03:06:39;;;;;;;12.40;11.17;;;11.70;99.90;;;;;;5058573;28;20208;-55
2023/10/26 03:09:08;;;;;;;13.23;11.80;;;11.80;99.90;;;;;;5057995;28;20683;-55
2023/10/26 03:11:34;;;;;;;12.80;11.30;;;12.00;99.90;;;;;;5058431;28;20206;-54
2023/10/26 03:14:00;;;;;;;12.77;11.57;;;12.10;99.90;;;;;;5059499;28;20199;-55
2023/10/26 03:16:25;;;;;;;13.13;11.73;;;12.10;99.90;;;;;;5055341;28;20592;-53
2023/10/26 03:18:51;;;;;;;13.23;11.47;;;12.00;99.90;;;;;;5058105;28;20254;-54
2023/10/26 03:21:18;;;;;;;12.57;10.97;;;12.10;99.90;;;;;;5056429;28;20230;-55
2023/10/26 03:23:44;;;;;;;13.10;11.77;;;11.80;99.90;;;;;;5059617;28;20318;-55
2023/10/26 03:26:10;;;;;;;13.53;12.07;;;11.80;99.90;;;;;;5056863;28;20718;-56
2023/10/26 03:28:36;;;;;;;12.80;11.60;;;11.80;99.90;;;;;;5058201;28;20254;-55
2023/10/26 03:31:01;;;;;;;14.43;12.93;;;11.80;99.90;;;;;;5056657;28;20188;-56
2023/10/26 03:33:27;;;;;;;13.00;11.80;;;11.80;99.90;;;;;;5060114;28;20234;-55
2023/10/26 03:35:52;;;;;;;14.00;12.53;;;11.90;99.90;;;;;;5056124;28;20196;-55
2023/10/26 03:38:18;;;;;;;13.70;12.30;;;11.70;99.90;;;;;;5056787;28;20373;-55
2023/10/26 03:40:44;;;;;;;16.47;12.17;;;11.90;99.90;;;;;;5059343;28;20205;-55
2023/10/26 03:43:09;;;;;;;13.93;12.53;;;12.10;99.90;;;;;;5050981;28;20288;-56
2023/10/26 03:45:34;;;;;;;13.83;12.43;;;12.30;99.90;;;;;;5051730;28;20206;-55
2023/10/26 03:48:00;;;;;;;14.33;12.20;;;12.30;99.90;;;;;;5056251;28;20767;-57
2023/10/26 03:50:25;;;;;;;11.97;10.73;;;12.30;99.90;;;;;;5052187;28;20198;-56
2023/10/26 03:52:51;;;;;;;14.23;12.80;;;12.10;99.90;;;;;;5053842;28;20336;-57
2023/10/26 03:55:16;;;;;;;13.63;12.33;;;12.10;99.90;;;;;;5057530;28;20407;-56
2023/10/26 03:57:43;;;;;;;13.40;12.00;;;12.10;99.90;;;;;;5061652;28;20207;-56
2023/10/26 04:00:09;;;;;;;14.10;12.27;;;12.00;99.90;;;;;;5056348;28;20642;-56
2023/10/26 04:02:35;;;;;;;12.93;11.23;;;11.90;99.90;;;;;;5051513;28;20198;-56
2023/10/26 04:05:00;;;;;;;14.00;12.17;;;11.80;99.90;;;;;;5054749;28;20209;-56
2023/10/26 04:07:27;;;;;;;13.63;12.23;;;11.80;99.90;;;;;;5054349;28;20284;-56
2023/10/26 04:09:52;;;;;;;13.73;12.33;;;11.90;99.90;;;;;;5055413;28;20206;-56
2023/10/26 04:12:18;;;;;;;12.60;11.30;;;11.80;99.90;;;;;;5059310;28;20832;-56
2023/10/26 04:14:44;;;;;;;14.27;12.50;;;11.70;99.90;;;;;;5055793;28;20210;-71
2023/10/26 04:17:12;;;;;;;13.97;12.60;;;11.60;99.90;;;;;;5054612;28;20252;-56
2023/10/26 04:19:37;;;;;;;14.33;12.83;;;11.70;99.90;;;;;;5047816;28;20208;-56
2023/10/26 04:22:05;;;;;;;15.80;13.33;;;11.80;99.90;;;;;;5053686;28;20740;-56
2023/10/26 04:24:31;;;;;;;13.03;11.70;;;11.90;99.90;;;;;;5048735;28;20946;-56
2023/10/26 04:26:56;;;;;;;13.80;12.43;;;11.80;99.90;;;;;;5049479;28;20709;-56
2023/10/26 04:29:22;;;;;;;13.63;12.33;;;11.80;99.90;;;;;;5049262;28;20685;-56
2023/10/26 04:31:47;;;;;;;14.10;12.67;;;11.60;99.90;;;;;;5051968;28;20236;-56
2023/10/26 04:34:13;;;;;;;13.70;12.30;;;11.60;99.90;;;;;;5053193;28;20745;-55
2023/10/26 04:36:38;;;;;;;13.67;12.00;;;11.50;99.90;;;;;;5047398;28;20196;-56
2023/10/26 04:39:04;;;;;;;14.83;13.37;;;11.50;99.90;;;;;;5049548;28;20609;-56
2023/10/26 04:41:30;;;;;;;16.37;13.70;;;11.50;99.90;;;;;;5059281;28;20200;-56
2023/10/26 04:43:56;;;;;;;13.03;11.73;;;11.50;99.90;;;;;;5048923;28;20196;-57
2023/10/26 04:46:21;;;;;;;12.93;11.73;;;11.60;99.90;;;;;;5060641;28;20214;-56
2023/10/26 04:48:47;;;;;;;15.13;12.00;;;11.70;99.90;;;;;;5054291;28;20194;-56
2023/10/26 04:51:12;;;;;;;13.50;12.17;;;11.60;99.90;;;;;;5055833;28;20568;-57
2023/10/26 04:53:38;;;;;;;15.10;12.43;;;11.50;99.90;;;;;;5055879;28;20207;-56
2023/10/26 04:56:04;;;;;;;14.70;12.90;;;11.60;99.90;;;;;;5055398;28;20206;-56
2023/10/26 04:58:30;;;;;;;15.17;12.90;;;11.70;99.90;;;;;;5056808;28;20238;-56
2023/10/26 05:00:55;;;;;;;13.60;12.20;;;11.80;99.90;;;;;;5049201;28;20203;-56
2023/10/26 05:03:21;;;;;;;13.93;12.53;;;11.70;99.90;;;;;;5055335;28;20202;-56
2023/10/26 05:05:46;;;;;;;13.80;12.40;;;11.70;99.90;;;;;;5053196;28;20209;-55
2023/10/26 05:08:12;;;;;;;13.83;12.40;;;11.80;99.90;;;;;;5057518;28;20278;-58
2023/10/26 05:10:37;;;;;;;13.23;11.87;;;11.60;99.90;;;;;;5055377;28;20712;-57
2023/10/26 05:13:03;;;;;;;12.47;11.17;;;11.70;99.90;;;;;;5059492;28;20529;-57
2023/10/26 05:15:29;;;;;;;12.20;11.00;;;11.70;99.90;;;;;;5052452;28;20310;-56
2023/10/26 05:17:54;;;;;;;12.43;10.70;;;11.60;99.90;;;;;;5063875;28;20265;-57
2023/10/26 05:20:21;;;;;;;12.87;11.60;;;11.60;99.90;;;;;;5053025;28;20210;-55
2023/10/26 05:22:46;;;;;;;12.23;10.83;;;11.70;99.90;;;;;;5058908;28;20222;-56
2023/10/26 05:25:13;;;;;;;12.00;10.80;;;11.70;99.90;;;;;;5049100;28;20227;-56
2023/10/26 05:27:40;;;;;;;11.83;10.27;;;11.70;99.90;;;;;;5055262;28;20190;-56
2023/10/26 05:30:06;;;;;;;10.50;9.50;;;11.50;99.90;;;;;;5061661;28;20199;-56
2023/10/26 05:32:32;;;;;;;12.00;10.80;;;11.40;99.90;;;;;;5059954;28;20210;-56
2023/10/26 05:34:57;;;;;;;11.77;10.57;;;11.40;99.90;;;;;;5061166;28;20197;-55
2023/10/26 05:37:23;;;;;;;12.67;11.40;;;11.30;99.90;;;;;;5056910;28;20247;-55
2023/10/26 05:39:48;;;;;;;11.27;10.10;;;11.40;99.90;;;;;;5061480;28;20907;-56
2023/10/26 05:42:14;;;;;;;10.60;9.10;;;11.30;99.90;;;;;;5058599;28;20185;-55
2023/10/26 05:44:39;;;;;;;14.43;13.00;;;11.40;99.90;;;;;;5062519;28;20741;-56
2023/10/26 05:47:05;;;;;;;13.07;9.87;;;11.30;99.90;;;;;;5056953;28;20192;-55
2023/10/26 05:49:30;;;;;;;11.40;10.20;;;11.30;99.90;;;;;;5057306;28;20547;-55
2023/10/26 05:52:00;;;;;;;11.47;10.37;;;11.30;99.90;;;;;;5063292;28;20298;-55
2023/10/26 05:54:26;;;;;;;10.17;9.13;;;11.50;99.90;;;;;;5062394;28;20265;-56
2023/10/26 05:56:51;;;;;;;12.27;9.83;;;11.30;99.90;;;;;;5056166;28;20760;-56
2023/10/26 05:59:17;;;;;;;12.33;11.03;;;11.40;99.90;;;;;;5060101;28;20203;-57
2023/10/26 06:01:42;;;;;;;11.87;10.20;;;11.30;99.90;;;;;;5057384;28;20577;-57
2023/10/26 06:04:08;;;;;;;11.07;9.40;;;11.40;99.90;;;;;;5060854;28;20308;-57
2023/10/26 06:06:34;;;;;;;9.20;8.33;;;11.50;99.90;;;;;;5063822;28;20256;-55
2023/10/26 06:08:59;;;;;;;9.53;8.63;;;11.60;99.90;;;;;;5059648;28;20574;-56
2023/10/26 06:11:25;;;;;;;9.13;8.23;;;11.60;99.90;;;;;;5053289;28;20199;-56
2023/10/26 06:13:51;;;;;;;10.80;9.80;;;11.70;99.90;;;;;;5060676;28;20643;-56
2023/10/26 06:16:17;;;;;;;10.10;9.10;;;11.50;99.90;;;;;;5056666;28;20207;-57
2023/10/26 06:18:43;;;;;;;9.33;8.43;;;11.50;99.90;;;;;;5060010;28;20584;-65
2023/10/26 06:21:09;;;;;;;10.37;9.03;;;11.60;99.90;;;;;;5058020;28;20217;-67
2023/10/26 06:23:35;;;;;;;9.00;8.13;;;11.70;99.90;;;;;;5059285;28;20688;-57
2023/10/26 06:26:01;;;;;;;10.43;9.37;;;11.50;99.90;;;;;;5061061;28;20282;-56
2023/10/26 06:28:28;;;;;;;9.33;8.43;;;11.60;99.90;;;;;;5048858;28;20294;-56
2023/10/26 06:30:55;;;;;;;9.43;8.43;;;11.60;99.90;;;;;;5062605;28;20207;-57
2023/10/26 06:33:21;;;;;;;10.00;8.67;;;11.70;99.90;;;;;;5060808;28;20293;-55
2023/10/26 06:35:48;;;;;;;11.60;9.23;;;11.60;99.90;;;;;;5060977;28;20225;-56
2023/10/26 06:38:14;;;;;;;9.80;8.80;;;11.60;99.90;;;;;;5065256;28;20224;-55
2023/10/26 06:40:39;;;;;;;10.37;9.27;;;11.70;99.90;;;;;;5058510;28;20198;-56
2023/10/26 06:43:05;;;;;;;10.57;8.37;;;11.70;99.90;;;;;;5055326;28;20210;-66
2023/10/26 06:45:31;;;;;;;9.07;8.27;;;11.50;99.90;;;;;;5047823;28;20210;-56
2023/10/26 06:47:56;;;;;;;9.63;8.73;;;11.60;99.90;;;;;;5054901;28;20229;-56
2023/10/26 06:50:24;;;;;;;9.67;8.67;;;11.70;99.90;;;;;;5048185;28;20191;-58
2023/10/26 06:52:50;;;;;;;10.13;9.13;;;11.70;99.90;;;;;;5052217;28;20211;-58
2023/10/26 06:55:16;;;;;;;9.20;8.30;;;11.60;99.90;;;;;;5058435;28;20623;-70
2023/10/26 06:57:42;;;;;;;10.13;9.13;;;11.30;99.90;;;;;;5050247;28;20220;-58
2023/10/26 07:00:09;;;;;;;9.90;8.90;;;11.40;99.90;;;;;;5059911;28;20267;-63
2023/10/26 07:02:36;;;;;;;10.27;9.27;;;11.50;99.90;;;;;;5054358;28;20203;-58
2023/10/26 07:05:03;;;;;;;10.60;9.10;;;11.60;99.90;;;;;;5045716;28;20288;-58
2023/10/26 07:07:28;;;;;;;10.57;9.43;;;11.60;99.90;;;;;;5050992;28;20203;-58
2023/10/26 07:09:54;;;;;;;10.03;9.13;;;11.70;99.90;;;;;;5052966;28;20209;-60
2023/10/26 07:12:19;;;;;;;10.57;9.20;;;11.70;99.90;;;;;;5055492;28;20670;-59
2023/10/26 07:14:45;;;;;;;11.47;10.30;;;11.60;99.90;;;;;;5053840;28;20190;-57
2023/10/26 07:17:10;;;;;;;12.97;11.47;;;11.60;99.90;;;;;;5055041;28;20222;-57
2023/10/26 07:19:36;;;;;;;13.37;10.70;;;11.40;99.90;;;;;;5053220;28;20231;-63
2023/10/26 07:22:02;;;;;;;12.17;10.83;;;11.60;99.90;;;;;;5052432;28;20632;-57
2023/10/26 07:24:29;;;;;;;12.67;11.07;;;11.50;99.90;;;;;;5053506;28;20290;-58
2023/10/26 07:26:54;;;;;;;15.30;11.63;;;11.60;99.90;;;;;;5057022;28;20215;-57
2023/10/26 07:29:20;;;;;;;13.77;12.27;;;11.60;99.90;;;;;;5051361;28;20304;-66
2023/10/26 07:31:46;;;;;;;14.53;12.40;;;11.60;99.90;;;;;;5062734;28;20202;-60
2023/10/26 07:34:11;;;;;;;12.87;10.97;;;11.60;99.90;;;;;;5058484;28;20721;-59
2023/10/26 07:36:37;;;;;;;12.17;10.70;;;11.60;99.90;;;;;;5056658;28;20209;-61
2023/10/26 07:39:02;;;;;;;13.17;11.23;;;11.70;99.90;;;;;;5061174;28;20218;-58
2023/10/26 07:41:28;;;;;;;12.30;10.73;;;11.50;99.90;;;;;;5055529;28;20268;-58
2023/10/26 07:43:54;;;;;;;13.70;11.50;;;11.50;99.90;;;;;;5061148;28;20195;-57
2023/10/26 07:46:21;;;;;;;12.10;10.50;;;11.40;99.90;;;;;;5053167;28;20206;-57
2023/10/26 07:48:46;;;;;;;12.47;11.17;;;11.40;99.90;;;;;;5052014;28;20202;-57
2023/10/26 07:51:12;;;;;;;13.00;11.60;;;11.40;99.90;;;;;;5051500;28;20222;-62
2023/10/26 07:53:37;;;;;;;12.27;11.00;;;11.40;99.90;;;;;;5048993;28;20194;-64
2023/10/26 07:56:03;;;;;;;15.37;11.50;;;11.30;99.90;;;;;;5049885;28;20728;-62
2023/10/26 07:58:30;;;;;;;14.23;11.63;;;11.40;99.90;;;;;;5057381;28;20236;-63
2023/10/26 08:00:56;;;;;;;13.50;12.13;;;11.40;99.90;;;;;;5049534;28;20210;-58
2023/10/26 08:03:23;;;;;;;13.03;11.10;;;11.30;99.90;;;;;;5052494;28;20187;-58
2023/10/26 08:05:57;;;;;;;12.53;11.17;;;11.40;99.90;;;;;;5048952;28;20191;-57
2023/10/26 08:08:22;;;;;;;15.00;12.27;;;11.50;99.90;;;;;;5053973;28;20838;-58
2023/10/26 08:10:48;;;;;;;13.30;11.67;;;11.50;99.90;;;;;;5046404;28;20228;-57
2023/10/26 08:13:13;;;;;;;13.60;12.20;;;11.50;99.90;;;;;;5053750;28;20587;-56
2023/10/26 08:15:41;;;;;;;13.90;12.33;;;11.40;99.90;;;;;;5053311;28;20258;-59
2023/10/26 08:18:07;;;;;;;13.80;12.37;;;11.40;99.90;;;;;;5053200;28;20219;-62
2023/10/26 08:20:32;;;;;;;16.40;13.10;;;11.50;99.90;;;;;;5050385;28;20195;-58
2023/10/26 08:22:58;;;;;;;14.40;11.97;;;11.50;99.90;;;;;;5051143;28;20714;-58
2023/10/26 08:25:23;;;;;;;14.30;12.17;;;11.50;99.90;;;;;;5051028;28;20195;-57
2023/10/26 08:27:49;;;;;;;15.00;11.97;;;11.60;99.90;;;;;;5051526;28;20302;-59
2023/10/26 08:30:15;;;;;;;13.33;12.00;;;11.60;99.90;;;;;;5049095;28;20204;-59
2023/10/26 08:32:40;;;;;;;14.37;12.70;;;11.60;99.90;;;;;;5053449;28;20197;-60
2023/10/26 08:35:06;;;;;;;13.63;12.30;;;11.60;99.90;;;;;;5049404;28;20216;-62
2023/10/26 08:37:31;;;;;;;14.87;12.07;;;11.80;99.90;;;;;;5050861;28;20278;-57
2023/10/26 08:39:57;;;;;;;13.83;12.33;;;11.70;99.90;;;;;;5052994;28;20203;-63
2023/10/26 08:42:23;;;;;;;12.90;11.60;;;11.70;99.90;;;;;;5049733;28;20200;-61
2023/10/26 08:44:49;;;;;;;13.10;11.70;;;11.60;99.90;;;;;;5049895;28;20560;-60
2023/10/26 08:47:17;;;;;;;13.13;11.73;;;11.40;99.90;;;;;;5048725;28;20708;-63
2023/10/26 08:49:45;;;;;;;12.83;11.53;;;11.50;99.90;;;;;;5055167;28;20577;-62
2023/10/26 08:52:11;;;;;;;13.27;11.83;;;11.60;99.90;;;;;;5049861;28;20200;-61
2023/10/26 08:54:37;;;;;;;12.83;11.37;;;11.80;99.90;;;;;;5057966;28;20209;-58
2023/10/26 08:57:08;;;;;;;12.40;11.07;;;11.80;99.90;;;;;;5052749;28;20204;-58
2023/10/26 08:59:34;;;;;;;13.43;11.80;;;11.80;99.90;;;;;;5048625;28;20262;-58
2023/10/26 09:01:59;;;;;;;12.73;11.43;;;11.90;99.90;;;;;;5054004;28;20547;-58
2023/10/26 09:04:24;;;;;;;12.70;11.37;;;11.90;99.90;;;;;;5052981;28;20193;-57
2023/10/26 09:06:52;;;;;;;12.23;10.33;;;12.00;99.90;;;;;;5052265;28;20199;-62
2023/10/26 09:09:17;;;;;;;12.43;11.03;;;11.90;99.90;;;;;;5058003;28;20184;-62
2023/10/26 09:11:46;;;;;;;11.63;10.50;;;11.90;99.90;;;;;;5057222;28;20243;-62
2023/10/26 09:14:19;;;;;;;11.43;10.23;;;11.90;99.90;;;;;;5056036;28;20208;-58
2023/10/26 09:16:46;;;;;;;11.30;10.20;;;11.90;99.90;;;;;;5052007;28;20243;-57
2023/10/26 09:19:16;;;;;;;12.13;10.93;;;12.00;99.90;;;;;;5053730;28;20200;-56
2023/10/26 09:21:59;;;;;;;15.80;11.30;;;12.00;99.90;;;;;;5054959;28;20219;-57
2023/10/26 09:24:27;;;;;;;12.40;10.67;;;12.00;99.90;;;;;;5054434;28;20816;-58
2023/10/26 09:27:18;;;;;;;11.07;9.93;;;12.10;99.90;;;;;;5051923;28;20309;-58
2023/10/26 09:29:45;;;;;;;12.97;11.00;;;12.10;99.90;;;;;;5050438;28;20614;-56
2023/10/26 09:32:10;;;;;;;10.63;9.60;;;12.20;99.90;;;;;;5055589;28;20196;-57
2023/10/26 09:34:43;;;;;;;10.73;9.63;;;12.10;99.90;;;;;;5053183;28;20212;-64
2023/10/26 09:37:09;;;;;;;12.20;10.27;;;12.00;99.90;;;;;;5048915;28;20212;-59
2023/10/26 09:39:36;;;;;;;11.43;10.07;;;11.90;99.90;;;;;;5050254;28;20269;-57
2023/10/26 09:42:05;;;;;;;11.60;8.83;;;11.90;99.90;;;;;;5051509;28;20432;-56
2023/10/26 09:44:31;;;;;;;10.43;9.53;;;11.70;99.90;;;;;;5056154;28;20214;-57
2023/10/26 09:46:58;;;;;;;13.13;9.23;;;11.80;99.90;;;;;;5056818;28;20195;-57
2023/10/26 09:49:25;;;;;;;9.60;8.60;;;11.90;99.90;;;;;;5053917;28;20237;-57
2023/10/26 09:51:51;;;;;;;10.67;9.57;;;11.80;99.90;;;;;;5054625;28;20223;-57
2023/10/26 09:54:19;;;;;;;10.53;9.53;;;11.90;99.90;;;;;;5050215;28;20199;-58
2023/10/26 09:56:49;;;;;;;10.03;9.03;;;12.00;99.90;;;;;;5055326;28;20247;-57
2023/10/26 09:59:16;;;;;;;10.43;9.43;;;12.10;99.90;;;;;;5056643;28;20208;-57
2023/10/26 10:01:42;;;;;;;9.47;8.57;;;12.10;99.90;;;;;;5065269;28;20204;-57
2023/10/26 10:04:10;;;;;;;9.43;8.57;;;12.30;99.90;;;;;;5060147;28;20206;-57
2023/10/26 10:06:48;;;;;;;10.87;9.07;;;12.30;99.90;;;;;;5053746;28;20222;-57
2023/10/26 10:09:17;;;;;;;13.30;9.90;;;12.40;99.90;;;;;;5060665;28;20695;-58
2023/10/26 10:11:42;;;;;;;11.37;9.13;;;12.40;99.90;;;;;;5056639;28;20200;-58
2023/10/26 10:14:08;;;;;;;10.17;9.17;;;12.40;99.90;;;;;;5059280;28;20674;-58
2023/10/26 10:16:33;;;;;;;10.17;9.20;;;12.40;99.90;;;;;;5052378;28;20207;-57
2023/10/26 10:19:19;;;;;;;11.70;10.60;;;12.30;99.90;;;;;;5061055;28;20214;-57
2023/10/26 10:21:44;;;;;;;9.63;8.73;;;12.40;99.90;;;;;;5057965;28;20610;-57
2023/10/26 10:24:10;;;;;;;11.13;10.03;;;12.40;99.90;;;;;;5054793;28;20637;-58
2023/10/26 10:27:08;;;;;;;9.57;8.60;;;12.30;99.90;;;;;;5055908;28;20205;-58
2023/10/26 10:29:33;;;;;;;11.33;10.27;;;12.10;99.90;;;;;;5059767;28;20210;-58
2023/10/26 10:31:59;;;;;;;11.73;10.30;;;12.10;99.90;;;;;;5058701;28;20199;-58
2023/10/26 10:34:29;;;;;;;10.57;9.57;;;12.20;99.90;;;;;;5058743;28;20956;-58
2023/10/26 10:37:21;;;;;;;12.53;9.87;;;12.40;99.90;;;;;;5058701;28;20779;-57
2023/10/26 10:40:12;;;;;;;11.00;9.90;;;12.60;99.90;;;;;;5059506;28;20750;-57
2023/10/26 10:42:48;;;;;;;11.00;10.00;;;12.60;99.90;;;;;;5060457;28;20200;-58
2023/10/26 10:45:15;;;;;;;14.00;12.43;;;12.50;99.90;;;;;;5056073;28;20199;-57
2023/10/26 10:47:42;;;;;;;12.63;10.57;;;12.50;99.90;;;;;;5053666;28;20205;-56
2023/10/26 10:50:20;;;;;;;10.87;9.63;;;12.50;99.90;;;;;;5061450;28;20280;-58
2023/10/26 10:52:47;;;;;;;12.67;11.47;;;12.50;99.90;;;;;;5058756;28;20226;-57
2023/10/26 10:55:24;;;;;;;11.87;10.57;;;12.70;99.90;;;;;;5055675;28;20200;-57
2023/10/26 10:58:02;;;;;;;11.87;10.60;;;12.50;99.90;;;;;;5057145;28;20223;-57
2023/10/26 11:00:42;;;;;;;18.30;15.27;;;12.20;99.90;;;;;;5083928;28;20655;-57
2023/10/26 11:03:08;;;;;;;12.87;11.30;;;12.20;99.90;;;;;;5056757;28;20278;-57
2023/10/26 11:05:40;;;;;;;11.67;10.47;;;12.30;99.90;;;;;;5063084;28;20237;-58
2023/10/26 11:08:07;;;;;;;13.07;11.60;;;12.30;99.90;;;;;;5055037;28;20204;-57
2023/10/26 11:10:33;;;;;;;13.73;12.00;;;12.30;99.90;;;;;;5055870;28;20542;-57
2023/10/26 11:12:58;;;;;;;12.57;11.33;;;12.40;99.90;;;;;;5057829;28;21095;-57
2023/10/26 11:15:32;;;;;;;12.47;10.97;;;12.20;99.90;;;;;;5056293;28;20219;-56
2023/10/26 11:17:58;;;;;;;15.43;11.93;;;12.50;99.90;;;;;;5057881;28;20312;-56
2023/10/26 11:20:45;;;;;;;11.93;10.73;;;12.50;99.90;;;;;;5055933;28;20195;-63
2023/10/26 11:23:12;;;;;;;11.70;10.50;;;12.40;99.90;;;;;;5055778;28;20202;-57
2023/10/26 11:25:38;;;;;;;12.40;11.10;;;12.50;99.90;;;;;;5058168;28;20193;-57
2023/10/26 11:28:05;;;;;;;11.83;10.53;;;12.70;99.90;;;;;;5058522;28;20194;-58
2023/10/26 11:30:44;;;;;;;12.93;10.37;;;12.90;99.90;;;;;;5058269;28;20248;-58
2023/10/26 11:33:10;;;;;;;11.93;10.67;;;12.90;99.90;;;;;;5054271;28;20205;-58
2023/10/26 11:35:42;;;;;;;12.80;10.80;;;12.80;99.90;;;;;;5056397;28;20209;-58
2023/10/26 11:38:07;;;;;;;11.47;10.37;;;12.70;99.90;;;;;;5062563;28;20218;-58
2023/10/26 11:40:33;;;;;;;10.97;9.77;;;12.70;99.90;;;;;;5052214;28;20282;-60
2023/10/26 11:43:00;;;;;;;10.77;9.67;;;12.90;99.90;;;;;;5054451;28;20208;-62
2023/10/26 11:45:27;;;;;;;10.60;9.50;;;13.10;99.90;;;;;;5043195;28;20197;-58
2023/10/26 11:48:00;;;;;;;12.10;9.87;;;13.00;99.90;;;;;;5059694;28;20961;-58
2023/10/26 11:50:31;;;;;;;10.73;9.70;;;12.90;99.90;;;;;;5056251;28;20675;-58
2023/10/26 11:52:59;;;;;;;11.17;10.07;;;12.80;99.90;;;;;;5056747;28;20300;-61
2023/10/26 11:55:25;;;;;;;10.57;9.47;;;12.80;99.90;;;;;;5055629;28;20204;-69
2023/10/26 11:57:52;;;;;;;13.50;11.43;;;12.50;99.90;;;;;;5060212;28;20214;-66
2023/10/26 12:00:19;;;;;;;12.47;10.23;;;12.60;99.90;;;;;;5055037;28;20212;-60
2023/10/26 12:02:45;;;;;;;10.53;9.50;;;12.90;99.90;;;;;;5052931;28;20202;-60
2023/10/26 12:05:17;;;;;;;10.30;9.03;;;12.90;99.90;;;;;;5051912;28;20242;-58
2023/10/26 12:07:44;;;;;;;10.60;9.60;;;13.10;99.90;;;;;;5053909;28;20366;-58
2023/10/26 12:10:10;;;;;;;9.53;8.57;;;13.20;99.90;;;;;;5052842;28;20185;-58
2023/10/26 12:12:37;;;;;;;10.70;8.97;;;13.10;99.90;;;;;;5050980;28;20204;-58
2023/10/26 12:15:04;;;;;;;10.70;9.60;;;13.30;99.90;;;;;;5050121;28;20188;-58
2023/10/26 12:17:29;;;;;;;10.00;8.57;;;13.20;99.90;;;;;;5052930;28;20210;-58
2023/10/26 12:19:54;;;;;;;11.73;8.70;;;13.10;99.90;;;;;;5048814;28;20182;-59
2023/10/26 12:22:20;;;;;;;9.57;8.57;;;13.10;99.90;;;;;;5059273;28;20220;-68
2023/10/26 12:24:46;;;;;;;10.60;8.80;;;13.20;99.90;;;;;;5065631;28;20203;-57
2023/10/26 12:27:16;;;;;;;10.33;9.27;;;13.30;99.90;;;;;;5049568;28;20284;-67
2023/10/26 12:29:44;;;;;;;9.17;8.23;;;13.30;99.90;;;;;;5052007;28;20185;-58